Time;durP1;ratioP1;P1;durP2;ratioP2;P2;SDS_P1;SDS_P2;PMS_P1;PMS_P2;Temp;Humidity;BMP_temperature;BMP_pressure;BME280_temperature;BME280_humidity;BME280_pressure;Samples;Min_cycle;Max_cycle;Signal;HPM_P1;HPM_P2
2021/01/03 00:00:26;;;;;;;39.67;22.65;;;3.50;99.90;;;;;;5015740;28;20165;-77
2021/01/03 00:02:51;;;;;;;44.85;22.80;;;3.60;99.90;;;;;;5015171;28;20167;-76
2021/01/03 00:05:21;;;;;;;49.50;24.63;;;3.40;99.90;;;;;;5015414;28;20178;-79
2021/01/03 00:07:46;;;;;;;41.80;21.27;;;3.40;99.90;;;;;;5015518;28;20170;-77
2021/01/03 00:10:13;;;;;;;42.27;22.70;;;3.50;99.90;;;;;;5015410;28;20565;-76
2021/01/03 00:12:39;;;;;;;47.40;24.08;;;3.50;99.90;;;;;;5015319;28;20261;-77
2021/01/03 00:15:10;;;;;;;40.80;21.67;;;3.50;99.90;;;;;;5014771;28;20678;-76
2021/01/03 00:17:37;;;;;;;44.67;23.48;;;3.50;99.90;;;;;;5015120;28;20190;-77
2021/01/03 00:20:05;;;;;;;42.80;23.90;;;3.50;99.90;;;;;;5015184;28;20173;-76
2021/01/03 00:22:31;;;;;;;50.25;24.05;;;3.40;99.90;;;;;;5015139;28;20175;-78
2021/01/03 00:24:57;;;;;;;44.57;23.63;;;3.50;99.90;;;;;;5014622;28;20542;-77
2021/01/03 00:27:22;;;;;;;42.33;22.33;;;3.40;99.90;;;;;;5015042;28;20242;-76
2021/01/03 00:29:48;;;;;;;46.70;23.53;;;3.40;99.90;;;;;;5014871;28;20203;-77
2021/01/03 00:32:13;;;;;;;44.53;23.53;;;3.50;99.90;;;;;;5013662;28;20639;-77
2021/01/03 00:34:39;;;;;;;43.90;22.90;;;3.50;99.90;;;;;;5014379;28;20214;-76
2021/01/03 00:37:04;;;;;;;50.13;24.60;;;3.50;99.90;;;;;;5014572;28;20186;-78
2021/01/03 00:39:30;;;;;;;43.03;22.53;;;3.60;99.90;;;;;;5014800;28;20566;-77
2021/01/03 00:41:56;;;;;;;48.60;24.77;;;3.40;99.90;;;;;;5014974;28;20182;-78
2021/01/03 00:44:21;;;;;;;46.07;22.83;;;3.50;99.90;;;;;;5014571;28;20343;-77
2021/01/03 00:46:47;;;;;;;41.00;21.57;;;3.50;99.90;;;;;;5014920;28;20180;-76
2021/01/03 00:49:13;;;;;;;44.83;23.67;;;3.50;99.90;;;;;;5014628;28;20209;-75
2021/01/03 00:51:38;;;;;;;51.17;24.67;;;3.40;99.90;;;;;;5014643;28;20563;-77
2021/01/03 00:54:04;;;;;;;38.30;20.80;;;3.40;99.90;;;;;;5014284;28;20199;-77
2021/01/03 00:56:30;;;;;;;35.97;22.30;;;3.50;99.90;;;;;;5014706;28;20184;-76
2021/01/03 00:58:55;;;;;;;46.70;22.80;;;3.50;99.90;;;;;;5013814;28;20175;-76
2021/01/03 01:01:22;;;;;;;40.60;23.47;;;3.50;99.90;;;;;;5014250;28;20916;-77
2021/01/03 01:03:48;;;;;;;54.20;24.80;;;3.50;99.90;;;;;;5014092;28;20202;-77
2021/01/03 01:06:13;;;;;;;48.22;23.98;;;3.60;99.90;;;;;;5014318;28;20526;-77
2021/01/03 01:08:39;;;;;;;42.40;22.93;;;3.50;99.90;;;;;;5014284;28;20261;-76
2021/01/03 01:11:06;;;;;;;41.93;21.30;;;3.60;99.90;;;;;;5014360;28;20188;-77
2021/01/03 01:13:32;;;;;;;41.05;21.75;;;3.60;99.90;;;;;;5013713;28;20444;-77
2021/01/03 01:15:58;;;;;;;47.25;24.45;;;3.60;99.90;;;;;;5014249;28;20178;-78
2021/01/03 01:18:24;;;;;;;47.53;23.47;;;3.50;99.90;;;;;;5014178;28;20239;-78
2021/01/03 01:20:49;;;;;;;46.83;24.40;;;3.50;99.90;;;;;;5014176;28;20962;-77
2021/01/03 01:23:15;;;;;;;43.10;23.43;;;3.40;99.90;;;;;;5013620;28;20647;-76
2021/01/03 01:25:40;;;;;;;36.87;21.90;;;3.50;99.90;;;;;;5013925;28;20188;-77
2021/01/03 01:28:06;;;;;;;47.97;25.50;;;3.60;99.90;;;;;;5013954;28;20207;-76
2021/01/03 01:30:33;;;;;;;39.80;23.67;;;3.60;99.90;;;;;;5013874;28;20541;-76
2021/01/03 01:33:01;;;;;;;39.83;22.00;;;3.60;99.90;;;;;;5013615;28;20218;-75
2021/01/03 01:35:33;;;;;;;45.47;25.27;;;3.50;99.90;;;;;;5013465;28;20197;-78
2021/01/03 01:38:00;;;;;;;45.63;24.35;;;3.50;99.90;;;;;;5012521;28;20188;-77
2021/01/03 01:40:32;;;;;;;36.53;21.40;;;3.60;99.90;;;;;;5013727;28;20166;-77
2021/01/03 01:42:58;;;;;;;39.88;22.15;;;3.70;99.90;;;;;;5013504;28;20193;-77
2021/01/03 01:45:28;;;;;;;42.70;24.97;;;3.60;99.90;;;;;;5013787;28;20182;-77
2021/01/03 01:48:00;;;;;;;36.40;22.15;;;3.50;99.90;;;;;;5013542;28;20422;-76
2021/01/03 01:50:38;;;;;;;37.25;22.38;;;3.40;99.90;;;;;;5013577;28;20194;-76
2021/01/03 01:53:06;;;;;;;41.30;23.17;;;3.50;99.90;;;;;;5013193;28;20171;-78
2021/01/03 01:55:38;;;;;;;40.38;21.65;;;3.60;99.90;;;;;;5013508;28;20174;-77
2021/01/03 01:58:25;;;;;;;38.95;22.52;;;3.60;99.90;;;;;;5013615;28;20260;-78
2021/01/03 02:01:00;;;;;;;38.78;20.95;;;3.60;99.90;;;;;;5013530;28;20202;-77
2021/01/03 02:03:40;;;;;;;36.85;21.23;;;3.60;99.90;;;;;;5013185;28;20621;-76
2021/01/03 02:06:14;;;;;;;37.15;20.33;;;3.50;99.90;;;;;;5013557;28;20254;-75
2021/01/03 02:08:50;;;;;;;40.13;22.35;;;3.50;99.90;;;;;;5013422;28;20288;-77
2021/01/03 02:11:19;;;;;;;37.30;20.60;;;3.40;99.90;;;;;;5013565;28;20177;-77
2021/01/03 02:13:49;;;;;;;36.70;19.98;;;3.50;99.90;;;;;;5012917;28;20187;-76
2021/01/03 02:16:21;;;;;;;39.53;22.40;;;3.30;99.90;;;;;;5013467;28;20172;-76
2021/01/03 02:18:48;;;;;;;38.42;21.15;;;3.50;99.90;;;;;;5013420;28;20580;-76
2021/01/03 02:21:25;;;;;;;39.42;22.38;;;3.50;99.90;;;;;;5013350;28;20181;-77
2021/01/03 02:24:11;;;;;;;34.58;21.50;;;3.60;99.90;;;;;;5012880;28;20556;-77
2021/01/03 02:26:44;;;;;;;43.30;22.45;;;3.60;99.90;;;;;;5013467;28;20179;-77
2021/01/03 02:29:13;;;;;;;38.00;22.23;;;3.50;99.90;;;;;;5013106;28;20297;-76
2021/01/03 02:31:45;;;;;;;40.28;23.95;;;3.70;99.90;;;;;;5013163;28;20171;-76
2021/01/03 02:34:18;;;;;;;37.97;22.27;;;3.60;99.90;;;;;;5012530;28;20213;-76
2021/01/03 02:36:50;;;;;;;45.10;22.20;;;3.60;99.90;;;;;;5013236;28;20174;-78
2021/01/03 02:39:16;;;;;;;35.00;20.77;;;3.80;99.90;;;;;;5013131;28;20175;-76
2021/01/03 02:41:41;;;;;;;32.27;19.43;;;3.60;99.90;;;;;;5012991;28;20686;-75
2021/01/03 02:44:07;;;;;;;40.50;23.10;;;3.60;99.90;;;;;;5012571;28;20286;-77
2021/01/03 02:46:34;;;;;;;34.07;20.43;;;3.50;99.90;;;;;;5011659;28;20211;-77
2021/01/03 02:49:00;;;;;;;42.63;21.10;;;3.40;99.90;;;;;;5012896;28;20292;-77
2021/01/03 02:51:33;;;;;;;38.53;22.47;;;3.60;99.90;;;;;;5013251;28;20258;-76
2021/01/03 02:53:59;;;;;;;38.40;22.55;;;3.50;99.90;;;;;;5012547;28;20612;-77
2021/01/03 02:56:24;;;;;;;32.47;21.93;;;3.50;99.90;;;;;;5013119;28;20179;-76
2021/01/03 02:58:50;;;;;;;36.87;21.43;;;3.60;99.90;;;;;;5013099;28;20174;-77
2021/01/03 03:01:16;;;;;;;32.23;19.47;;;3.70;99.90;;;;;;5013228;28;20175;-76
2021/01/03 03:03:41;;;;;;;39.57;21.97;;;3.60;99.90;;;;;;5012545;28;20206;-77
2021/01/03 03:06:07;;;;;;;37.30;21.80;;;3.40;99.90;;;;;;5012754;28;20214;-75
2021/01/03 03:08:32;;;;;;;38.03;21.00;;;3.50;99.90;;;;;;5012837;28;20203;-77
2021/01/03 03:10:58;;;;;;;32.60;20.90;;;3.40;99.90;;;;;;5011875;28;20225;-78
2021/01/03 03:13:23;;;;;;;36.93;19.40;;;3.50;99.90;;;;;;5012639;28;20197;-76
2021/01/03 03:15:49;;;;;;;35.93;19.80;;;3.40;99.90;;;;;;5012923;28;20178;-75
2021/01/03 03:18:15;;;;;;;33.77;19.07;;;3.50;99.90;;;;;;5012806;28;20230;-77
2021/01/03 03:20:40;;;;;;;33.33;17.20;;;3.50;99.90;;;;;;5012724;28;20257;-77
2021/01/03 03:23:06;;;;;;;26.60;16.50;;;3.50;99.90;;;;;;5015833;28;20461;-77
2021/01/03 03:25:32;;;;;;;27.37;16.10;;;3.30;99.90;;;;;;5016245;28;20182;-76
2021/01/03 03:27:57;;;;;;;25.70;16.50;;;3.30;99.90;;;;;;5016079;28;20178;-76
2021/01/03 03:30:23;;;;;;;28.23;16.37;;;3.30;99.90;;;;;;5015988;28;20182;-76
2021/01/03 03:32:53;;;;;;;32.83;17.75;;;3.40;99.90;;;;;;5016002;28;20173;-78
2021/01/03 03:35:26;;;;;;;24.30;14.60;;;3.50;99.90;;;;;;5015936;28;20558;-77
2021/01/03 03:37:53;;;;;;;28.13;16.40;;;3.50;99.90;;;;;;5016076;28;20181;-76
2021/01/03 03:40:19;;;;;;;30.42;17.88;;;3.70;99.90;;;;;;5015854;28;20591;-76
2021/01/03 03:42:45;;;;;;;25.40;14.48;;;3.50;99.90;;;;;;5015702;28;20554;-77
2021/01/03 03:45:12;;;;;;;22.85;13.68;;;3.50;99.90;;;;;;5015500;28;20214;-77
2021/01/03 03:47:37;;;;;;;20.15;12.63;;;3.50;99.90;;;;;;5015835;28;20185;-75
2021/01/03 03:50:10;;;;;;;17.40;12.30;;;3.50;99.90;;;;;;5015992;28;20638;-76
2021/01/03 03:52:36;;;;;;;22.67;13.95;;;3.50;99.90;;;;;;5015609;28;20173;-76
2021/01/03 03:55:02;;;;;;;20.50;14.20;;;3.40;99.90;;;;;;5015243;28;20188;-76
2021/01/03 03:57:27;;;;;;;25.77;15.93;;;3.40;99.90;;;;;;5015642;28;20230;-77
2021/01/03 03:59:53;;;;;;;30.23;16.63;;;3.40;99.90;;;;;;5015894;28;20564;-79
2021/01/03 04:02:19;;;;;;;32.43;17.10;;;3.50;99.90;;;;;;5015763;28;20175;-75
2021/01/03 04:04:45;;;;;;;23.50;16.00;;;3.60;99.90;;;;;;5015242;28;20206;-77
2021/01/03 04:07:10;;;;;;;33.35;18.25;;;3.60;99.90;;;;;;5015655;28;20644;-77
2021/01/03 04:09:36;;;;;;;31.53;18.97;;;3.70;99.90;;;;;;5015585;28;20209;-76
2021/01/03 04:12:02;;;;;;;31.87;19.73;;;3.60;99.90;;;;;;5015418;28;20175;-76
2021/01/03 04:14:27;;;;;;;37.00;18.57;;;3.50;99.90;;;;;;5015207;28;20212;-78
2021/01/03 04:16:58;;;;;;;26.87;17.03;;;3.40;99.90;;;;;;5015221;28;20639;-76
2021/01/03 04:19:25;;;;;;;29.38;18.88;;;3.40;99.90;;;;;;5015308;28;20182;-75
2021/01/03 04:22:00;;;;;;;33.78;18.33;;;3.40;99.90;;;;;;5013919;28;20189;-77
2021/01/03 04:24:27;;;;;;;32.03;19.45;;;3.40;99.90;;;;;;5014827;28;20271;-78
2021/01/03 04:26:55;;;;;;;31.00;18.67;;;3.30;99.90;;;;;;5014995;28;20548;-77
2021/01/03 04:29:22;;;;;;;36.63;21.27;;;3.50;99.90;;;;;;5014913;28;20210;-77
2021/01/03 04:31:57;;;;;;;34.50;20.17;;;3.50;99.90;;;;;;5015087;28;20183;-76
2021/01/03 04:34:23;;;;;;;35.60;19.98;;;3.40;99.90;;;;;;5013575;28;20206;-77
2021/01/03 04:36:51;;;;;;;34.03;20.02;;;3.40;99.90;;;;;;5014785;28;20181;-76
2021/01/03 04:39:17;;;;;;;29.15;18.75;;;3.30;99.90;;;;;;5014748;28;20198;-76
2021/01/03 04:41:43;;;;;;;34.88;19.67;;;3.30;99.90;;;;;;5014843;28;20178;-76
2021/01/03 04:44:35;;;;;;;36.15;20.52;;;3.40;99.90;;;;;;5014443;28;20396;-77
2021/01/03 04:47:06;;;;;;;35.17;20.25;;;3.40;99.90;;;;;;5014514;28;20178;-76
2021/01/03 04:49:40;;;;;;;32.40;20.30;;;3.30;99.90;;;;;;5014951;28;20205;-78
2021/01/03 04:52:39;;;;;;;35.88;20.60;;;3.40;99.90;;;;;;5014968;28;20180;-76
2021/01/03 04:55:19;;;;;;;31.65;19.38;;;3.30;99.90;;;;;;5014392;28;20188;-76
2021/01/03 04:58:15;;;;;;;37.17;21.10;;;3.20;99.90;;;;;;5014673;28;20189;-78
2021/01/03 05:00:50;;;;;;;30.35;18.60;;;3.20;99.90;;;;;;5014844;28;20182;-77
2021/01/03 05:03:18;;;;;;;39.28;20.88;;;3.20;99.90;;;;;;5014121;28;20201;-77
2021/01/03 05:05:49;;;;;;;32.20;19.63;;;3.30;99.90;;;;;;5014471;28;20209;-77
2021/01/03 05:08:34;;;;;;;33.50;19.30;;;3.40;99.90;;;;;;5014377;28;20202;-78
2021/01/03 05:11:08;;;;;;;41.85;21.15;;;3.40;99.90;;;;;;5014326;28;20209;-77
2021/01/03 05:13:43;;;;;;;31.50;18.55;;;3.40;99.90;;;;;;5013903;28;20240;-77
2021/01/03 05:16:10;;;;;;;35.38;19.98;;;3.40;99.90;;;;;;5014391;28;20184;-76
2021/01/03 05:18:36;;;;;;;32.95;20.73;;;3.30;99.90;;;;;;5014274;28;20539;-78
2021/01/03 05:21:06;;;;;;;28.90;19.63;;;3.30;99.90;;;;;;5014210;28;20264;-77
2021/01/03 05:23:37;;;;;;;33.15;18.98;;;3.30;99.90;;;;;;5012404;28;20682;-77
2021/01/03 05:26:05;;;;;;;29.30;18.25;;;3.30;99.90;;;;;;5014194;28;20229;-76
2021/01/03 05:28:37;;;;;;;32.55;19.17;;;3.40;99.90;;;;;;5013945;28;20281;-77
2021/01/03 05:31:13;;;;;;;29.70;17.45;;;3.50;99.90;;;;;;5013912;28;20177;-76
2021/01/03 05:33:50;;;;;;;30.38;19.10;;;3.40;99.90;;;;;;5013443;28;20214;-76
2021/01/03 05:36:34;;;;;;;32.25;19.27;;;3.30;99.90;;;;;;5013883;28;20173;-78
2021/01/03 05:39:03;;;;;;;30.25;17.13;;;3.50;99.90;;;;;;5013855;28;20270;-78
2021/01/03 05:42:05;;;;;;;30.70;19.95;;;3.50;99.90;;;;;;5013543;28;20201;-76
2021/01/03 05:44:36;;;;;;;32.17;18.58;;;3.50;99.90;;;;;;5012980;28;20261;-77
2021/01/03 05:47:19;;;;;;;31.40;18.67;;;3.50;99.90;;;;;;5013755;28;20206;-78
2021/01/03 05:49:46;;;;;;;26.98;18.45;;;3.40;99.90;;;;;;5013603;28;20293;-78
2021/01/03 05:52:28;;;;;;;29.83;18.90;;;3.40;99.90;;;;;;5013693;28;20175;-76
2021/01/03 05:54:55;;;;;;;31.75;18.27;;;3.40;99.90;;;;;;5013286;28;20220;-77
2021/01/03 05:57:32;;;;;;;26.40;16.83;;;3.50;99.90;;;;;;5013609;28;20182;-75
2021/01/03 05:59:58;;;;;;;36.63;18.83;;;3.40;99.90;;;;;;5013533;28;20260;-78
2021/01/03 06:02:28;;;;;;;29.30;18.43;;;3.30;99.90;;;;;;5013817;28;20206;-76
2021/01/03 06:05:20;;;;;;;29.85;18.95;;;3.40;99.90;;;;;;5013229;28;20205;-76
2021/01/03 06:08:01;;;;;;;28.92;17.40;;;3.30;99.90;;;;;;5010975;28;20197;-77
2021/01/03 06:10:29;;;;;;;30.00;18.45;;;3.20;99.90;;;;;;5013614;28;20200;-78
2021/01/03 06:13:00;;;;;;;24.13;16.38;;;3.20;99.90;;;;;;5012990;28;20619;-76
2021/01/03 06:15:27;;;;;;;28.83;17.88;;;3.20;99.90;;;;;;5013494;28;20182;-76
2021/01/03 06:17:59;;;;;;;31.92;19.23;;;3.30;99.90;;;;;;5013239;28;20178;-77
2021/01/03 06:20:28;;;;;;;27.40;17.70;;;3.30;99.90;;;;;;5013455;28;20232;-78
2021/01/03 06:23:20;;;;;;;31.05;18.35;;;3.30;99.90;;;;;;5012836;28;20264;-77
2021/01/03 06:25:53;;;;;;;31.05;18.20;;;3.30;99.90;;;;;;5013181;28;20171;-77
2021/01/03 06:28:18;;;;;;;32.55;19.08;;;3.40;99.90;;;;;;5013202;28;20198;-77
2021/01/03 06:30:59;;;;;;;29.03;17.63;;;3.40;99.90;;;;;;5013314;28;20175;-77
2021/01/03 06:33:51;;;;;;;25.85;17.48;;;3.40;99.90;;;;;;5012762;28;20233;-77
2021/01/03 06:36:20;;;;;;;29.08;18.13;;;3.30;99.90;;;;;;5013308;28;20239;-77
2021/01/03 06:38:58;;;;;;;28.05;16.88;;;3.40;99.90;;;;;;5013220;28;20211;-77
2021/01/03 06:41:34;;;;;;;26.67;16.30;;;3.40;99.90;;;;;;5013233;28;20177;-78
2021/01/03 06:44:27;;;;;;;27.92;17.52;;;3.30;99.90;;;;;;5012639;28;20212;-76
2021/01/03 06:47:14;;;;;;;26.67;16.27;;;3.30;99.90;;;;;;5013180;28;20182;-77
2021/01/03 06:50:01;;;;;;;28.42;16.60;;;3.30;99.90;;;;;;5013016;28;20276;-77
2021/01/03 06:53:02;;;;;;;28.08;17.10;;;3.30;99.90;;;;;;5013062;28;20209;-77
2021/01/03 06:55:35;;;;;;;27.15;17.25;;;3.40;99.90;;;;;;5013375;28;20235;-77
2021/01/03 06:58:46;;;;;;;27.67;16.45;;;3.40;99.90;;;;;;5016748;28;20181;-77
2021/01/03 07:01:21;;;;;;;26.63;17.30;;;3.30;99.90;;;;;;5016878;28;20249;-75
2021/01/03 07:03:50;;;;;;;27.08;16.55;;;3.40;99.90;;;;;;5016341;28;20563;-76
2021/01/03 07:06:15;;;;;;;27.10;18.13;;;3.30;99.90;;;;;;5016496;28;20240;-75
2021/01/03 07:08:46;;;;;;;26.33;17.07;;;3.40;99.90;;;;;;5016641;28;20199;-75
2021/01/03 07:11:39;;;;;;;27.90;17.75;;;3.30;99.90;;;;;;5016622;28;20174;-76
2021/01/03 07:14:21;;;;;;;33.75;17.00;;;3.30;99.90;;;;;;5016000;28;20202;-78
2021/01/03 07:16:56;;;;;;;28.70;16.35;;;3.40;99.90;;;;;;5016405;28;20178;-75
2021/01/03 07:19:30;;;;;;;29.77;18.08;;;3.40;99.90;;;;;;5016390;28;20529;-76
2021/01/03 07:22:28;;;;;;;30.13;17.45;;;3.40;99.90;;;;;;5016477;28;20178;-75
2021/01/03 07:24:54;;;;;;;31.30;17.48;;;3.50;99.90;;;;;;5015079;28;20218;-76
2021/01/03 07:27:26;;;;;;;29.67;17.53;;;3.50;99.90;;;;;;5016340;28;20188;-78
2021/01/03 07:29:54;;;;;;;28.05;18.08;;;3.50;99.90;;;;;;5016205;28;20555;-78
2021/01/03 07:32:27;;;;;;;26.83;17.92;;;3.50;99.90;;;;;;5016061;28;20178;-75
2021/01/03 07:34:54;;;;;;;29.83;17.20;;;3.40;99.90;;;;;;5015706;28;20206;-77
2021/01/03 07:37:25;;;;;;;26.90;18.20;;;3.50;99.90;;;;;;5016501;28;20638;-76
2021/01/03 07:39:59;;;;;;;26.52;17.48;;;3.60;99.90;;;;;;5016089;28;20232;-78
2021/01/03 07:42:28;;;;;;;29.50;16.85;;;3.50;99.90;;;;;;5016000;28;20246;-78
2021/01/03 07:44:55;;;;;;;28.55;17.52;;;3.60;99.90;;;;;;5015605;28;20201;-78
2021/01/03 07:47:35;;;;;;;26.42;17.05;;;3.50;99.90;;;;;;5014922;28;20221;-76
2021/01/03 07:50:34;;;;;;;28.33;17.27;;;3.60;99.90;;;;;;5015827;28;20657;-76
2021/01/03 07:53:34;;;;;;;32.08;18.02;;;3.60;99.90;;;;;;5015374;28;20588;-77
2021/01/03 07:56:25;;;;;;;25.80;16.40;;;3.50;99.90;;;;;;5016135;28;20197;-77
2021/01/03 07:58:57;;;;;;;33.13;17.92;;;3.60;99.90;;;;;;5015714;28;20213;-77
2021/01/03 08:01:31;;;;;;;26.98;17.52;;;3.50;99.90;;;;;;5015758;28;20182;-76
2021/01/03 08:03:56;;;;;;;28.30;17.08;;;3.60;99.90;;;;;;5015544;28;20205;-75
2021/01/03 08:06:22;;;;;;;24.10;16.13;;;3.70;99.90;;;;;;5015375;28;20273;-75
2021/01/03 08:08:54;;;;;;;27.00;16.63;;;3.70;99.90;;;;;;5015364;28;20237;-75
2021/01/03 08:11:36;;;;;;;27.13;16.38;;;3.60;99.90;;;;;;5015706;28;20175;-78
2021/01/03 08:14:08;;;;;;;29.70;18.65;;;3.70;99.90;;;;;;5015818;28;20569;-76
2021/01/03 08:16:37;;;;;;;27.60;17.42;;;3.50;99.90;;;;;;5016149;28;20320;-78
2021/01/03 08:19:08;;;;;;;27.08;16.85;;;3.40;99.90;;;;;;5015605;28;20536;-76
2021/01/03 08:21:36;;;;;;;27.30;16.55;;;3.40;99.90;;;;;;5015452;28;20171;-78
2021/01/03 08:24:22;;;;;;;25.08;16.38;;;3.40;99.90;;;;;;5015089;28;20285;-76
2021/01/03 08:26:52;;;;;;;29.13;17.80;;;3.60;99.90;;;;;;5015016;28;20567;-76
2021/01/03 08:29:33;;;;;;;29.10;18.17;;;3.60;99.90;;;;;;5014101;28;20670;-77
2021/01/03 08:32:04;;;;;;;24.73;16.55;;;3.50;99.90;;;;;;5014060;28;20178;-78
2021/01/03 08:34:33;;;;;;;24.58;15.60;;;3.50;99.90;;;;;;5014754;28;20220;-78
2021/01/03 08:36:59;;;;;;;26.45;15.93;;;3.50;99.90;;;;;;5015119;28;20680;-76
2021/01/03 08:39:28;;;;;;;24.75;14.60;;;3.50;99.90;;;;;;5015062;28;20190;-78
2021/01/03 08:42:01;;;;;;;26.83;18.90;;;3.60;99.90;;;;;;5014949;28;20177;-78
2021/01/03 08:44:38;;;;;;;31.83;20.17;;;3.80;99.90;;;;;;5014336;28;20206;-76
2021/01/03 08:47:16;;;;;;;31.75;17.92;;;3.80;99.90;;;;;;5015080;28;20752;-76
2021/01/03 08:49:42;;;;;;;27.73;16.92;;;3.80;99.90;;;;;;5013360;28;20749;-77
2021/01/03 08:52:16;;;;;;;24.07;15.67;;;3.60;99.90;;;;;;5014722;28;20264;-78
2021/01/03 08:54:44;;;;;;;22.55;15.52;;;3.60;99.90;;;;;;5014166;28;20832;-77
2021/01/03 08:57:10;;;;;;;26.55;17.42;;;3.60;99.90;;;;;;5014985;28;20258;-77
2021/01/03 08:59:35;;;;;;;24.98;16.08;;;3.70;99.90;;;;;;5014627;28;20537;-74
2021/01/03 09:02:01;;;;;;;23.47;15.20;;;3.80;99.90;;;;;;5014688;28;20183;-75
2021/01/03 09:04:27;;;;;;;54.27;42.00;;;3.70;99.90;;;;;;5011148;28;20229;-76
2021/01/03 09:06:56;;;;;;;29.80;18.33;;;3.80;99.90;;;;;;5003173;28;20186;-75
2021/01/03 09:09:25;;;;;;;28.88;18.05;;;3.90;99.90;;;;;;5006157;28;20191;-76
2021/01/03 09:11:58;;;;;;;24.25;17.13;;;3.90;99.90;;;;;;5014919;28;20182;-75
2021/01/03 09:14:32;;;;;;;21.40;13.88;;;3.80;99.90;;;;;;5014204;28;20198;-77
2021/01/03 09:17:13;;;;;;;21.83;14.85;;;3.80;99.90;;;;;;5014795;28;20189;-75
2021/01/03 09:20:09;;;;;;;20.98;13.63;;;3.70;99.90;;;;;;5013721;28;20257;-76
2021/01/03 09:22:48;;;;;;;20.60;13.07;;;3.70;99.90;;;;;;5014398;28;20536;-77
2021/01/03 09:25:35;;;;;;;21.48;13.52;;;3.80;99.90;;;;;;5014453;28;20204;-75
2021/01/03 09:28:28;;;;;;;23.90;14.57;;;3.70;99.90;;;;;;5014407;28;20297;-76
2021/01/03 09:31:24;;;;;;;17.17;11.80;;;3.80;99.90;;;;;;5014081;28;20167;-76
2021/01/03 09:33:51;;;;;;;17.55;11.70;;;3.80;99.90;;;;;;5004964;28;20640;-74
2021/01/03 09:36:26;;;;;;;19.13;13.13;;;3.80;99.90;;;;;;5013925;28;20257;-75
2021/01/03 09:39:13;;;;;;;18.10;12.20;;;3.70;99.90;;;;;;5013940;28;20629;-75
2021/01/03 09:41:38;;;;;;;16.63;12.25;;;3.70;99.90;;;;;;5013738;28;20264;-75
2021/01/03 09:44:23;;;;;;;18.33;13.50;;;3.80;99.90;;;;;;5013051;28;20228;-75
2021/01/03 09:47:09;;;;;;;19.25;12.07;;;4.00;99.90;;;;;;5013511;28;20731;-75
2021/01/03 09:49:37;;;;;;;14.55;10.05;;;3.70;99.90;;;;;;5013660;28;20214;-75
2021/01/03 09:52:39;;;;;;;17.58;10.85;;;3.90;99.90;;;;;;4997604;28;20279;-75
2021/01/03 09:55:21;;;;;;;16.83;11.00;;;3.80;99.90;;;;;;4933714;29;20594;-76
2021/01/03 09:58:08;;;;;;;20.80;11.98;;;3.90;99.90;;;;;;4948528;28;20203;-75
2021/01/03 10:00:53;;;;;;;16.40;10.48;;;4.00;99.90;;;;;;5002848;28;20189;-76
2021/01/03 10:03:32;;;;;;;15.02;10.35;;;3.80;99.90;;;;;;5011193;28;20190;-76
2021/01/03 10:06:16;;;;;;;14.15;9.50;;;3.90;99.90;;;;;;5010824;28;20260;-76
2021/01/03 10:08:43;;;;;;;11.80;8.57;;;3.80;99.90;;;;;;5010323;28;20293;-75
2021/01/03 10:11:08;;;;;;;15.00;11.15;;;4.00;99.90;;;;;;5011995;28;20709;-75
2021/01/03 10:13:34;;;;;;;12.57;8.77;;;3.90;99.90;;;;;;5013007;28;20225;-75
2021/01/03 10:16:18;;;;;;;12.17;8.47;;;4.00;99.90;;;;;;5013399;28;20190;-76
2021/01/03 10:18:44;;;;;;;15.57;9.70;;;3.80;99.90;;;;;;5013011;28;20193;-75
2021/01/03 10:21:29;;;;;;;13.83;9.30;;;3.90;99.90;;;;;;5013595;28;20553;-74
2021/01/03 10:24:09;;;;;;;12.43;9.05;;;4.00;99.90;;;;;;5013055;28;20204;-76
2021/01/03 10:26:35;;;;;;;13.38;9.63;;;4.10;99.90;;;;;;5013692;28;20170;-75
2021/01/03 10:29:02;;;;;;;14.40;9.68;;;4.00;99.90;;;;;;5013464;28;20208;-76
2021/01/03 10:31:57;;;;;;;12.90;8.02;;;4.10;99.90;;;;;;5016633;28;20509;-76
2021/01/03 10:34:24;;;;;;;12.65;9.93;;;3.90;99.90;;;;;;5000300;28;20365;-75
2021/01/03 10:36:54;;;;;;;14.90;9.10;;;4.10;99.90;;;;;;5017744;28;20185;-76
2021/01/03 10:39:20;;;;;;;14.93;10.10;;;4.10;99.90;;;;;;5017112;28;20197;-76
2021/01/03 10:41:46;;;;;;;14.33;10.13;;;4.10;99.90;;;;;;5016969;28;20276;-76
2021/01/03 10:44:13;;;;;;;17.35;10.55;;;4.20;99.90;;;;;;5016715;28;20433;-76
2021/01/03 10:46:39;;;;;;;12.75;9.30;;;4.20;99.90;;;;;;5015828;28;20194;-75
2021/01/03 10:49:06;;;;;;;13.90;10.32;;;4.20;99.90;;;;;;5015706;28;20210;-76
2021/01/03 10:51:35;;;;;;;14.43;11.18;;;4.20;99.90;;;;;;5016807;28;20175;-76
2021/01/03 10:54:02;;;;;;;13.85;9.32;;;4.00;99.90;;;;;;5016460;28;20546;-75
2021/01/03 10:56:28;;;;;;;12.32;9.23;;;4.10;99.90;;;;;;5016818;28;20178;-75
2021/01/03 10:58:54;;;;;;;14.23;10.33;;;4.30;99.90;;;;;;5017553;28;20174;-75
2021/01/03 11:01:20;;;;;;;13.60;8.63;;;4.30;99.90;;;;;;5017165;28;20501;-75
2021/01/03 11:03:46;;;;;;;13.40;9.03;;;4.30;99.90;;;;;;5016555;28;20933;-77
2021/01/03 11:06:12;;;;;;;14.20;8.90;;;4.40;99.90;;;;;;5017033;28;20282;-76
2021/01/03 11:08:38;;;;;;;12.70;8.93;;;4.50;99.90;;;;;;5016938;28;20212;-76
2021/01/03 11:11:05;;;;;;;10.80;8.90;;;4.20;99.90;;;;;;5016813;28;20416;-75
2021/01/03 11:13:31;;;;;;;14.00;10.25;;;4.20;99.90;;;;;;5016463;28;20194;-76
2021/01/03 11:15:56;;;;;;;11.40;8.80;;;4.40;99.90;;;;;;5016837;28;20654;-76
2021/01/03 11:18:22;;;;;;;11.23;8.53;;;4.40;99.90;;;;;;5016786;28;20203;-76
2021/01/03 11:20:48;;;;;;;13.87;8.90;;;4.40;99.90;;;;;;5016859;28;20182;-75
2021/01/03 11:23:13;;;;;;;11.40;9.00;;;4.40;99.90;;;;;;5016280;28;20488;-75
2021/01/03 11:25:39;;;;;;;11.77;8.07;;;4.50;99.90;;;;;;5016614;28;20233;-76
2021/01/03 11:28:05;;;;;;;9.90;8.60;;;4.60;99.90;;;;;;5016279;28;20635;-75
2021/01/03 11:30:30;;;;;;;13.30;9.30;;;4.60;99.90;;;;;;5016583;28;20175;-75
2021/01/03 11:32:56;;;;;;;10.93;8.30;;;4.50;99.90;;;;;;5016119;28;20418;-74
2021/01/03 11:35:22;;;;;;;10.20;8.57;;;4.60;99.90;;;;;;5016148;28;20203;-77
2021/01/03 11:37:48;;;;;;;12.43;7.10;;;4.40;99.90;;;;;;5016182;28;20205;-74
2021/01/03 11:40:15;;;;;;;12.30;8.40;;;4.40;99.90;;;;;;5016259;28;20182;-75
2021/01/03 11:42:41;;;;;;;8.20;6.75;;;4.50;99.90;;;;;;5015705;28;20221;-76
2021/01/03 11:45:16;;;;;;;14.90;8.13;;;4.40;99.90;;;;;;5016007;28;20199;-74
2021/01/03 11:47:42;;;;;;;8.55;7.25;;;4.40;99.90;;;;;;5016311;28;20270;-75
2021/01/03 11:50:10;;;;;;;9.30;7.72;;;4.40;99.90;;;;;;5015836;28;20209;-74
2021/01/03 11:52:36;;;;;;;11.27;7.47;;;4.50;99.90;;;;;;5015947;28;20261;-76
2021/01/03 11:55:03;;;;;;;7.57;6.80;;;4.60;99.90;;;;;;5014086;28;20234;-75
2021/01/03 11:57:29;;;;;;;10.70;7.95;;;4.30;99.90;;;;;;5015971;28;20414;-75
2021/01/03 11:59:55;;;;;;;8.30;6.87;;;4.40;99.90;;;;;;5015898;28;20205;-75
2021/01/03 12:02:20;;;;;;;7.90;6.80;;;4.40;99.90;;;;;;5015712;28;20228;-74
2021/01/03 12:04:46;;;;;;;9.20;7.93;;;4.50;99.90;;;;;;5015433;28;20280;-76
2021/01/03 12:07:17;;;;;;;11.37;8.20;;;4.50;99.90;;;;;;5015953;28;20177;-75
2021/01/03 12:09:44;;;;;;;8.43;6.15;;;4.50;99.90;;;;;;5015906;28;20555;-75
2021/01/03 12:12:13;;;;;;;9.45;7.43;;;4.40;99.90;;;;;;5015688;28;20174;-75
2021/01/03 12:14:40;;;;;;;8.52;7.30;;;4.40;99.90;;;;;;5014022;28;20244;-76
2021/01/03 12:17:15;;;;;;;9.95;6.85;;;4.30;99.90;;;;;;5015473;28;20179;-74
2021/01/03 12:19:40;;;;;;;6.80;6.10;;;4.40;99.90;;;;;;5016183;28;20527;-75
2021/01/03 12:22:07;;;;;;;8.97;6.27;;;4.30;99.90;;;;;;5014471;28;20175;-76
2021/01/03 12:24:33;;;;;;;7.70;6.07;;;4.30;99.90;;;;;;5015127;28;20201;-75
2021/01/03 12:26:59;;;;;;;8.82;6.60;;;4.60;99.90;;;;;;5015701;28;20186;-75
2021/01/03 12:29:26;;;;;;;9.20;6.20;;;4.30;99.90;;;;;;5015455;28;20201;-74
2021/01/03 12:31:58;;;;;;;9.10;7.15;;;4.40;99.90;;;;;;5015537;28;20171;-74
2021/01/03 12:34:27;;;;;;;9.48;6.65;;;4.60;99.90;;;;;;5015037;28;20225;-75
2021/01/03 12:37:10;;;;;;;7.90;6.95;;;4.50;99.90;;;;;;5015082;28;20175;-76
2021/01/03 12:39:37;;;;;;;9.05;7.10;;;4.50;99.90;;;;;;5015509;28;20174;-76
2021/01/03 12:42:03;;;;;;;8.07;7.00;;;4.50;99.90;;;;;;5013810;28;20182;-74
2021/01/03 12:44:29;;;;;;;7.32;6.53;;;4.30;99.90;;;;;;5014168;28;20196;-74
2021/01/03 12:46:59;;;;;;;9.83;6.67;;;4.10;99.90;;;;;;5014812;28;20669;-76
2021/01/03 12:49:25;;;;;;;9.68;6.45;;;4.40;99.90;;;;;;5014690;28;20237;-75
2021/01/03 12:51:52;;;;;;;7.57;6.30;;;4.40;99.90;;;;;;5014887;28;20266;-75
2021/01/03 12:54:18;;;;;;;10.07;7.20;;;4.40;99.90;;;;;;5013335;28;20476;-76
2021/01/03 12:56:43;;;;;;;8.45;6.50;;;4.40;99.90;;;;;;5014643;28;20194;-75
2021/01/03 12:59:09;;;;;;;10.17;7.20;;;4.40;99.90;;;;;;5014696;28;20265;-76
2021/01/03 13:01:38;;;;;;;8.50;7.27;;;4.40;99.90;;;;;;5014916;28;20189;-75